createdAt,value
2018-04-23T00:01:01.273Z,14.30
2018-04-23T00:03:27.346Z,14.30
2018-04-23T00:05:53.453Z,14.20
2018-04-23T00:08:19.564Z,14.10
2018-04-23T00:10:46.380Z,14.00
2018-04-23T00:13:12.484Z,14.00
2018-04-23T00:15:38.565Z,13.90
2018-04-23T00:18:04.767Z,13.90
2018-04-23T00:20:30.832Z,13.80
2018-04-23T00:22:56.917Z,13.80
2018-04-23T00:25:22.993Z,13.60
2018-04-23T00:27:49.077Z,13.60
2018-04-23T00:30:15.921Z,13.50
2018-04-23T00:32:42.773Z,13.40
2018-04-23T00:35:08.867Z,13.40
2018-04-23T00:37:34.940Z,13.30
2018-04-23T00:40:00.997Z,13.20
2018-04-23T00:42:27.856Z,13.10
2018-04-23T00:44:54.668Z,13.00
2018-04-23T00:47:20.741Z,13.00
2018-04-23T00:49:47.553Z,12.80
2018-04-23T00:52:13.637Z,12.80
2018-04-23T00:54:40.436Z,12.80
2018-04-23T00:57:06.507Z,12.70
2018-04-23T00:59:32.594Z,12.80
2018-04-23T01:01:58.719Z,12.80
2018-04-23T01:04:24.855Z,12.70
2018-04-23T01:06:50.983Z,12.70
2018-04-23T01:09:17.821Z,12.60
2018-04-23T01:11:43.954Z,12.60
2018-04-23T01:14:10.092Z,12.60
2018-04-23T01:16:36.362Z,12.50
2018-04-23T01:19:03.236Z,12.60
2018-04-23T01:21:29.371Z,12.50
2018-04-23T01:23:58.477Z,12.60
2018-04-23T01:26:24.609Z,12.60
2018-04-23T01:28:50.738Z,12.70
2018-04-23T01:31:17.610Z,12.70
2018-04-23T01:33:43.703Z,12.60
2018-04-23T01:36:09.822Z,12.60
2018-04-23T01:38:35.922Z,12.60
2018-04-23T01:41:02.058Z,12.60
2018-04-23T01:43:28.156Z,12.60
2018-04-23T01:45:54.293Z,12.60
2018-04-23T01:48:20.403Z,12.60
2018-04-23T01:50:46.530Z,12.60
2018-04-23T01:53:13.373Z,12.50
2018-04-23T01:55:39.490Z,12.40
2018-04-23T01:58:06.346Z,12.60
2018-04-23T02:00:34.005Z,12.60
2018-04-23T02:03:00.136Z,12.60
2018-04-23T02:05:26.258Z,12.70
2018-04-23T02:07:52.392Z,12.80
2018-04-23T02:10:18.498Z,12.90
2018-04-23T02:12:44.652Z,12.90
2018-04-23T02:15:10.758Z,13.10
2018-04-23T02:17:37.667Z,13.20
2018-04-23T02:20:03.792Z,13.20
2018-04-23T02:22:29.880Z,13.30
2018-04-23T02:24:56.043Z,13.30
2018-04-23T02:27:22.150Z,13.30
2018-04-23T02:29:48.321Z,13.20
2018-04-23T02:32:14.431Z,13.20
2018-04-23T02:34:41.335Z,13.20
2018-04-23T02:37:07.415Z,13.20
2018-04-23T02:39:33.646Z,13.30
2018-04-23T02:41:59.727Z,13.30
2018-04-23T02:44:26.541Z,13.70
2018-04-23T02:46:52.655Z,13.70
2018-04-23T02:49:18.742Z,13.80
2018-04-23T02:51:45.590Z,14.00
2018-04-23T02:54:11.669Z,14.00
2018-04-23T02:56:37.835Z,14.10
2018-04-23T02:59:03.918Z,14.10
2018-04-23T03:01:30.826Z,14.20
2018-04-23T03:03:56.946Z,14.20
2018-04-23T03:06:23.104Z,14.30
2018-04-23T03:08:49.195Z,14.30
2018-04-23T03:11:16.055Z,14.10
2018-04-23T03:13:42.909Z,14.10
2018-04-23T03:16:09.813Z,14.00
2018-04-23T03:18:35.939Z,14.00
2018-04-23T03:21:02.036Z,13.90
2018-04-23T03:23:28.902Z,13.90
2018-04-23T03:25:55.774Z,13.90
2018-04-23T03:28:21.870Z,13.90
2018-04-23T03:30:47.986Z,14.00
2018-04-23T03:33:14.075Z,14.10
2018-04-23T03:35:40.200Z,14.10
2018-04-23T03:38:07.030Z,14.40
2018-04-23T03:40:33.158Z,14.40
2018-04-23T03:43:00.059Z,14.40
2018-04-23T03:45:26.938Z,14.50
2018-04-23T03:47:53.031Z,14.50
2018-04-23T03:50:19.111Z,14.60
2018-04-23T03:52:45.230Z,14.60
2018-04-23T03:55:12.057Z,14.70
2018-04-23T03:57:38.194Z,14.70
2018-04-23T04:00:04.309Z,14.70
2018-04-23T04:02:30.410Z,14.70
2018-04-23T04:04:56.489Z,14.60
2018-04-23T04:07:22.587Z,14.60
2018-04-23T04:09:48.723Z,14.50
2018-04-23T04:12:27.991Z,14.50
2018-04-23T04:15:07.170Z,14.40
2018-04-23T04:20:51.992Z,14.20
2018-04-23T04:23:18.115Z,14.20
2018-04-23T04:25:45.031Z,14.20
2018-04-23T04:28:11.146Z,14.10
2018-04-23T04:30:37.970Z,14.00
2018-04-23T04:33:04.078Z,14.00
2018-04-23T04:35:31.142Z,14.00
2018-04-23T04:37:57.246Z,14.00
2018-04-23T04:40:23.314Z,13.90
2018-04-23T04:42:49.450Z,13.80
2018-04-23T04:45:15.558Z,13.70
2018-04-23T04:47:42.401Z,13.60
2018-04-23T04:50:08.506Z,13.60
2018-04-23T04:52:34.641Z,13.60
2018-04-23T04:55:00.790Z,13.70
2018-04-23T04:57:26.894Z,13.70
2018-04-23T04:59:52.996Z,13.70
2018-04-23T05:02:19.854Z,13.70
2018-04-23T05:04:46.698Z,13.90
2018-04-23T05:07:12.931Z,13.80
2018-04-23T05:09:39.064Z,14.20
2018-04-23T05:12:05.186Z,14.30
2018-04-23T05:14:31.305Z,14.40
2018-04-23T05:16:57.435Z,14.50
2018-04-23T05:19:23.579Z,14.50
2018-04-23T05:21:49.766Z,14.50
2018-04-23T05:24:15.870Z,14.60
2018-04-23T05:26:41.992Z,14.70
2018-04-23T05:29:08.114Z,14.80
2018-04-23T05:31:34.951Z,14.80
2018-04-23T05:34:01.786Z,14.90
2018-04-23T05:36:28.124Z,14.90
2018-04-23T05:38:54.238Z,15.00
2018-04-23T05:41:20.358Z,15.10
2018-04-23T05:43:47.317Z,15.20
2018-04-23T05:46:13.446Z,15.40
2018-04-23T05:48:39.574Z,15.60
2018-04-23T05:51:05.691Z,15.80
2018-04-23T05:53:31.798Z,16.00
2018-04-23T05:55:57.933Z,16.30
2018-04-23T05:58:24.067Z,16.40
2018-04-23T06:00:52.694Z,16.50
2018-04-23T06:03:18.835Z,16.70
2018-04-23T06:05:44.933Z,16.90
2018-04-23T06:08:11.055Z,17.10
2018-04-23T06:10:37.139Z,17.20
2018-04-23T06:13:03.240Z,17.30
2018-04-23T06:15:29.361Z,17.40
2018-04-23T06:17:55.464Z,17.50
2018-04-23T06:20:21.591Z,17.60
2018-04-23T06:22:47.702Z,17.70
2018-04-23T06:25:13.829Z,17.80
2018-04-23T06:27:39.934Z,17.90
2018-04-23T06:30:06.786Z,18.00
2018-04-23T06:32:32.903Z,18.00
2018-04-23T06:34:59.030Z,18.10
2018-04-23T06:37:27.222Z,18.30
2018-04-23T06:39:53.315Z,18.40
2018-04-23T06:42:19.446Z,18.50
2018-04-23T06:44:46.282Z,19.00
2018-04-23T06:47:12.412Z,19.00
2018-04-23T06:49:38.498Z,19.10
2018-04-23T06:52:04.611Z,19.30
2018-04-23T06:54:31.479Z,19.60
2018-04-23T06:56:57.564Z,19.50
2018-04-23T06:59:23.680Z,19.80
2018-04-23T07:01:49.914Z,19.80
2018-04-23T07:04:16.007Z,20.00
2018-04-23T07:06:42.149Z,19.80
2018-04-23T07:09:08.994Z,19.70
2018-04-23T07:11:35.122Z,19.70
2018-04-23T07:14:01.227Z,19.70
2018-04-23T07:16:27.374Z,19.30
2018-04-23T07:18:54.070Z,18.90
2018-04-23T07:21:20.170Z,18.70
2018-04-23T07:23:46.289Z,18.20
2018-04-23T07:26:12.385Z,17.80
2018-04-23T07:28:38.509Z,17.40
2018-04-23T07:31:04.602Z,17.00
2018-04-23T07:33:30.686Z,16.60
2018-04-23T07:35:56.811Z,16.10
2018-04-23T07:38:22.926Z,15.70
2018-04-23T07:40:49.035Z,15.20
2018-04-23T07:43:15.164Z,15.00
2018-04-23T07:45:42.014Z,14.80
2018-04-23T07:48:08.911Z,14.70
2018-04-23T07:50:35.007Z,14.70
2018-04-23T07:53:01.844Z,14.70
2018-04-23T07:55:27.961Z,14.70
2018-04-23T07:57:54.072Z,14.70
2018-04-23T08:00:20.198Z,14.80
2018-04-23T08:02:46.311Z,15.00
2018-04-23T08:05:12.406Z,15.20
2018-04-23T08:07:38.543Z,15.30
2018-04-23T08:10:04.687Z,15.40
2018-04-23T08:12:31.479Z,15.50
2018-04-23T08:14:57.583Z,15.50
2018-04-23T08:17:23.698Z,15.50
2018-04-23T08:19:49.797Z,15.60
2018-04-23T08:22:15.954Z,15.70
2018-04-23T08:24:42.845Z,15.90
2018-04-23T08:27:08.937Z,15.90
2018-04-23T08:29:35.838Z,16.10
2018-04-23T08:32:01.964Z,16.10
2018-04-23T08:34:28.103Z,16.20
2018-04-23T08:36:54.226Z,16.20
2018-04-23T08:39:21.066Z,16.20
2018-04-23T08:41:47.179Z,16.20
2018-04-23T08:44:13.286Z,16.20
2018-04-23T08:46:39.403Z,16.10
2018-04-23T08:49:05.534Z,16.10
2018-04-23T08:51:32.374Z,16.20
2018-04-23T08:53:59.238Z,16.30
2018-04-23T08:56:26.077Z,16.20
2018-04-23T08:58:52.226Z,16.20
2018-04-23T09:01:18.323Z,16.10
2018-04-23T09:03:44.423Z,16.20
2018-04-23T09:06:10.554Z,16.20
2018-04-23T09:08:37.417Z,16.30
2018-04-23T09:11:03.542Z,16.20
2018-04-23T09:13:30.377Z,16.50
2018-04-23T09:15:56.481Z,16.50
2018-04-23T09:18:22.613Z,16.60
2018-04-23T09:20:48.702Z,16.90
2018-04-23T09:23:14.789Z,16.80
2018-04-23T09:25:40.920Z,17.10
2018-04-23T09:28:07.062Z,17.40
2018-04-23T09:30:33.177Z,17.40
2018-04-23T09:33:00.011Z,17.40
2018-04-23T09:35:26.913Z,17.70
2018-04-23T09:37:52.988Z,17.60
2018-04-23T09:40:19.116Z,17.90
2018-04-23T09:42:45.261Z,18.00
2018-04-23T09:45:11.370Z,17.90
2018-04-23T09:47:37.509Z,18.00
2018-04-23T09:50:03.658Z,18.10
2018-04-23T09:52:29.753Z,18.40
2018-04-23T09:54:56.630Z,18.80
2018-04-23T09:57:22.750Z,18.80
2018-04-23T09:59:49.577Z,18.70
2018-04-23T10:02:20.798Z,18.70
2018-04-23T10:04:46.914Z,18.80
2018-04-23T10:07:13.018Z,18.90
2018-04-23T10:09:39.138Z,19.20
2018-04-23T10:12:05.248Z,19.10
2018-04-23T10:14:31.387Z,19.10
2018-04-23T10:16:57.473Z,19.20
2018-04-23T10:19:23.565Z,19.10
2018-04-23T10:21:49.666Z,19.00
2018-04-23T10:24:16.503Z,18.80
2018-04-23T10:26:42.597Z,18.80
2018-04-23T10:29:08.683Z,18.70
2018-04-23T10:31:34.808Z,18.70
2018-04-23T10:34:00.886Z,18.80
2018-04-23T10:36:26.994Z,18.80
2018-04-23T10:38:53.140Z,18.90
2018-04-23T10:41:19.231Z,19.10
2018-04-23T10:43:45.348Z,19.00
2018-04-23T10:46:11.436Z,19.40
2018-04-23T10:48:37.553Z,19.50
2018-04-23T10:51:03.637Z,19.50
2018-04-23T10:53:30.495Z,19.50
2018-04-23T10:55:57.349Z,19.50
2018-04-23T10:58:24.179Z,19.30
2018-04-23T11:00:50.253Z,19.30
2018-04-23T11:03:16.359Z,19.60
2018-04-23T11:05:42.446Z,19.80
2018-04-23T11:08:08.561Z,20.00
2018-04-23T11:10:35.418Z,19.80
2018-04-23T11:13:02.251Z,19.80
2018-04-23T11:15:28.346Z,19.80
2018-04-23T11:17:54.460Z,19.90
2018-04-23T11:20:20.541Z,19.70
2018-04-23T11:22:46.626Z,19.70
2018-04-23T11:25:12.774Z,20.20
2018-04-23T11:27:38.862Z,20.40
2018-04-23T11:30:05.943Z,20.60
2018-04-23T11:32:32.851Z,20.80
2018-04-23T11:34:59.654Z,21.00
2018-04-23T11:37:26.485Z,20.70
2018-04-23T11:39:52.630Z,20.70
2018-04-23T11:42:18.746Z,20.50
2018-04-23T11:44:44.855Z,20.60
2018-04-23T11:47:11.031Z,20.80
2018-04-23T11:49:37.118Z,21.10
2018-04-23T11:52:03.986Z,21.60
2018-04-23T11:54:30.112Z,21.60
2018-04-23T11:56:57.856Z,21.60
2018-04-23T11:59:25.076Z,21.60
2018-04-23T12:01:51.207Z,22.10
2018-04-23T12:04:17.310Z,22.20
2018-04-23T12:06:43.390Z,22.20
2018-04-23T12:09:09.506Z,22.10
2018-04-23T12:11:36.323Z,21.70
2018-04-23T12:14:02.438Z,21.70
2018-04-23T12:16:28.536Z,22.00
2018-04-23T12:18:54.638Z,22.30
2018-04-23T12:21:20.742Z,21.80
2018-04-23T12:23:46.842Z,21.50
2018-04-23T12:26:13.704Z,21.80
2018-04-23T12:28:40.517Z,21.40
2018-04-23T12:31:06.629Z,21.40
2018-04-23T12:33:32.723Z,21.40
2018-04-23T12:35:59.570Z,21.20
2018-04-23T12:38:25.653Z,21.20
2018-04-23T12:40:51.780Z,21.00
2018-04-23T12:43:17.898Z,20.60
2018-04-23T12:45:44.842Z,20.20
2018-04-23T12:48:12.558Z,20.10
2018-04-23T12:50:38.650Z,20.00
2018-04-23T12:53:04.770Z,20.00
2018-04-23T12:55:30.854Z,19.90
2018-04-23T12:57:57.710Z,20.00
2018-04-23T13:00:24.604Z,20.20
2018-04-23T13:02:50.694Z,20.20
2018-04-23T13:05:16.860Z,20.30
2018-04-23T13:07:43.706Z,20.70
2018-04-23T13:10:09.819Z,20.70
2018-04-23T13:12:35.968Z,20.80
2018-04-23T13:15:02.826Z,21.70
2018-04-23T13:17:29.710Z,21.40
2018-04-23T13:19:55.821Z,21.40
2018-04-23T13:22:22.683Z,20.80
2018-04-23T13:24:49.562Z,20.70
2018-04-23T13:27:15.705Z,20.80
2018-04-23T13:29:42.526Z,21.20
2018-04-23T13:32:09.394Z,21.10
2018-04-23T13:34:35.521Z,21.10
2018-04-23T13:37:02.374Z,21.40
2018-04-23T13:39:29.238Z,21.80
2018-04-23T13:41:56.074Z,22.20
2018-04-23T13:44:22.150Z,22.20
2018-04-23T13:46:48.270Z,22.80
2018-04-23T13:49:15.122Z,23.90
2018-04-23T13:51:41.246Z,23.90
2018-04-23T13:54:07.331Z,24.30
2018-04-23T13:56:33.458Z,24.60
2018-04-23T13:58:59.526Z,24.60
2018-04-23T14:01:25.641Z,25.00
2018-04-23T14:03:51.754Z,24.90
2018-04-23T14:06:18.591Z,24.30
2018-04-23T14:08:45.454Z,24.60
2018-04-23T14:11:12.314Z,24.00
2018-04-23T14:13:39.202Z,22.80
2018-04-23T14:16:05.332Z,22.80
2018-04-23T14:18:31.430Z,22.10
2018-04-23T14:20:57.547Z,21.60
2018-04-23T14:23:23.646Z,22.10
2018-04-23T14:25:51.323Z,22.40
2018-04-23T14:28:17.459Z,22.10
2018-04-23T14:30:44.976Z,22.10
2018-04-23T14:33:11.103Z,22.00
2018-04-23T14:35:38.742Z,21.50
2018-04-23T14:38:04.866Z,21.20
2018-04-23T14:40:31.706Z,20.60
2018-04-23T14:42:58.538Z,21.20
2018-04-23T14:45:24.673Z,21.10
2018-04-23T14:47:50.809Z,21.90
2018-04-23T14:50:16.915Z,22.00
2018-04-23T14:52:43.021Z,21.60
2018-04-23T14:55:09.146Z,21.50
2018-04-23T14:57:35.264Z,21.10
2018-04-23T15:00:01.408Z,20.60
2018-04-23T15:02:29.150Z,20.30
2018-04-23T15:04:55.242Z,20.00
2018-04-23T15:07:21.359Z,19.80
2018-04-23T15:09:47.467Z,19.70
2018-04-23T15:12:13.579Z,19.60
2018-04-23T15:14:40.415Z,19.20
2018-04-23T15:17:06.538Z,19.20
2018-04-23T15:19:32.614Z,19.00
2018-04-23T15:21:58.717Z,18.60
2018-04-23T15:24:24.820Z,18.50
2018-04-23T15:26:52.573Z,18.30
2018-04-23T15:29:18.731Z,18.00
2018-04-23T15:31:44.818Z,17.80
2018-04-23T15:34:11.631Z,17.50
2018-04-23T15:36:37.746Z,17.20
2018-04-23T15:39:04.833Z,16.70
2018-04-23T15:41:31.002Z,16.40
2018-04-23T15:43:57.213Z,16.20
2018-04-23T15:46:23.773Z,16.10
2018-04-23T15:48:49.878Z,15.50
2018-04-23T15:51:16.195Z,15.30
2018-04-23T15:53:42.383Z,15.20
2018-04-23T15:56:08.522Z,15.10
2018-04-23T15:58:34.669Z,15.00
2018-04-23T16:01:00.818Z,14.80
2018-04-23T16:03:26.930Z,14.80
2018-04-23T16:05:53.824Z,14.60
2018-04-23T16:08:19.978Z,14.60
2018-04-23T16:10:46.841Z,14.50
2018-04-23T16:13:12.939Z,14.40
2018-04-23T16:15:39.106Z,14.50
2018-04-23T16:18:05.209Z,14.50
2018-04-23T16:20:31.342Z,14.30
2018-04-23T16:22:57.441Z,14.30
2018-04-23T16:25:23.579Z,14.30
2018-04-23T16:27:50.446Z,14.50
2018-04-23T16:30:16.640Z,14.50
2018-04-23T16:32:42.786Z,14.60
2018-04-23T16:35:08.894Z,14.50
2018-04-23T16:37:35.025Z,14.50
2018-04-23T16:40:01.150Z,14.50
2018-04-23T16:42:27.316Z,14.50
2018-04-23T16:44:53.478Z,14.50
2018-04-23T16:47:20.865Z,14.80
2018-04-23T16:49:47.207Z,15.40
2018-04-23T16:52:13.922Z,15.60
2018-04-23T16:54:40.050Z,15.60
2018-04-23T16:57:06.157Z,15.20
2018-04-23T16:59:32.246Z,15.00
2018-04-23T17:01:58.372Z,14.90
2018-04-23T17:04:25.555Z,14.90
2018-04-23T17:06:52.501Z,14.90
2018-04-23T17:09:18.666Z,14.90
2018-04-23T17:11:45.093Z,14.80
2018-04-23T17:14:11.331Z,14.80
2018-04-23T17:16:37.548Z,14.90
2018-04-23T17:19:03.675Z,14.80
2018-04-23T17:21:29.842Z,14.70
2018-04-23T17:23:55.922Z,14.70
2018-04-23T17:26:22.747Z,15.00
2018-04-23T17:28:48.978Z,15.00
2018-04-23T17:31:15.082Z,15.10
2018-04-23T17:33:41.206Z,15.10
2018-04-23T17:36:08.061Z,15.00
2018-04-23T17:38:34.938Z,15.00
2018-04-23T17:41:01.144Z,15.00
2018-04-23T17:43:28.047Z,14.70
2018-04-23T17:45:54.164Z,14.70
2018-04-23T17:48:20.371Z,14.70
2018-04-23T17:50:46.489Z,14.70
2018-04-23T17:53:12.639Z,14.80
2018-04-23T17:55:38.746Z,14.70
2018-04-23T17:58:04.863Z,14.80
2018-04-23T18:00:31.022Z,14.80
2018-04-23T18:02:57.147Z,14.80
2018-04-23T18:05:23.377Z,14.80
2018-04-23T18:07:51.249Z,14.90
2018-04-23T18:10:17.426Z,14.90
2018-04-23T18:12:43.507Z,15.00
2018-04-23T18:15:10.366Z,14.80
2018-04-23T18:17:37.201Z,14.80
2018-04-23T18:20:03.311Z,14.70
2018-04-23T18:22:29.434Z,14.70
2018-04-23T18:24:56.240Z,14.60
2018-04-23T18:27:22.351Z,14.60
2018-04-23T18:29:48.470Z,14.60
2018-04-23T18:32:14.562Z,14.50
2018-04-23T18:34:41.497Z,14.30
2018-04-23T18:37:07.602Z,14.30
2018-04-23T18:39:33.767Z,14.40
2018-04-23T18:41:59.888Z,14.30
2018-04-23T18:44:25.974Z,14.10
2018-04-23T18:46:52.894Z,14.10
2018-04-23T18:49:19.003Z,14.00
2018-04-23T18:51:45.161Z,14.10
2018-04-23T18:54:11.261Z,14.10
2018-04-23T18:56:37.822Z,14.00
2018-04-23T18:59:04.006Z,14.00
2018-04-23T19:01:30.248Z,14.00
2018-04-23T19:03:56.427Z,14.10
2018-04-23T19:06:22.557Z,14.10
2018-04-23T19:08:49.544Z,14.10
2018-04-23T19:11:16.366Z,14.10
2018-04-23T19:13:43.282Z,13.90
2018-04-23T19:16:10.171Z,13.80
2018-04-23T19:18:36.417Z,13.80
2018-04-23T19:21:03.334Z,13.70
2018-04-23T19:23:29.508Z,13.70
2018-04-23T19:25:56.387Z,13.50
2018-04-23T19:28:23.322Z,13.50
2018-04-23T19:30:49.530Z,13.40
2018-04-23T19:33:15.662Z,13.40
2018-04-23T19:35:41.817Z,13.30
2018-04-23T19:38:07.942Z,13.30
2018-04-23T19:40:34.102Z,13.20
2018-04-23T19:43:00.278Z,13.20
2018-04-23T19:45:27.178Z,13.10
2018-04-23T19:47:53.321Z,13.00
2018-04-23T19:50:19.487Z,13.00
2018-04-23T19:52:45.725Z,12.90
2018-04-23T19:55:12.049Z,12.80
2018-04-23T19:57:38.913Z,12.70
2018-04-23T20:00:05.151Z,12.70
2018-04-23T20:02:31.290Z,12.60
2018-04-23T20:04:57.489Z,12.60
2018-04-23T20:07:23.566Z,12.60
2018-04-23T20:09:49.771Z,12.60
2018-04-23T20:12:15.933Z,12.40
2018-04-23T20:14:42.110Z,12.40
2018-04-23T20:17:08.332Z,12.40
2018-04-23T20:19:34.449Z,12.30
2018-04-23T20:22:00.570Z,12.30
2018-04-23T20:24:26.732Z,12.20
2018-04-23T20:26:52.890Z,12.10
2018-04-23T20:29:19.876Z,12.10
2018-04-23T20:31:46.010Z,12.00
2018-04-23T20:34:12.948Z,11.90
2018-04-23T20:36:39.057Z,11.80
2018-04-23T20:39:05.197Z,11.80
2018-04-23T20:41:31.380Z,11.80
2018-04-23T20:43:57.575Z,11.80
2018-04-23T20:46:23.721Z,11.70
2018-04-23T20:48:49.814Z,11.70
2018-04-23T20:51:16.638Z,11.70
2018-04-23T20:53:42.766Z,11.70
2018-04-23T20:56:08.894Z,11.60
2018-04-23T20:58:35.647Z,11.50
2018-04-23T21:01:01.830Z,11.30
2018-04-23T21:03:28.743Z,11.20
2018-04-23T21:05:54.842Z,11.20
2018-04-23T21:08:21.046Z,11.20
2018-04-23T21:10:47.539Z,11.20
2018-04-23T21:13:13.714Z,11.10
2018-04-23T21:15:39.863Z,11.20
2018-04-23T21:18:05.981Z,11.10
2018-04-23T21:20:32.143Z,11.10
2018-04-23T21:22:58.259Z,11.10
2018-04-23T21:25:24.389Z,11.10
2018-04-23T21:27:50.539Z,11.10
2018-04-23T21:30:16.630Z,11.10
2018-04-23T21:32:43.557Z,11.10
2018-04-23T21:35:09.726Z,11.00
2018-04-23T21:37:36.658Z,10.90
2018-04-23T21:40:03.435Z,11.00
2018-04-23T21:42:30.347Z,11.10
2018-04-23T21:44:56.455Z,11.10
2018-04-23T21:47:22.671Z,11.20
2018-04-23T21:49:50.100Z,11.30
2018-04-23T21:52:16.202Z,11.30
2018-04-23T21:54:42.390Z,11.30
2018-04-23T21:57:08.518Z,11.30
2018-04-23T21:59:34.613Z,11.20
2018-04-23T22:02:00.751Z,11.20
2018-04-23T22:04:26.864Z,11.20
2018-04-23T22:06:53.791Z,11.20
2018-04-23T22:09:19.929Z,11.20
2018-04-23T22:11:46.018Z,11.40
2018-04-23T22:14:12.902Z,11.50
2018-04-23T22:16:39.509Z,11.50
2018-04-23T22:19:06.341Z,11.40
2018-04-23T22:21:32.478Z,11.40
2018-04-23T22:23:58.766Z,11.40
2018-04-23T22:26:24.860Z,11.30
2018-04-23T22:28:51.010Z,11.40
2018-04-23T22:31:17.111Z,11.40
2018-04-23T22:33:43.235Z,11.40
2018-04-23T22:36:09.338Z,11.40
2018-04-23T22:38:36.169Z,11.50
2018-04-23T22:41:03.273Z,11.50
2018-04-23T22:43:29.390Z,11.50
2018-04-23T22:45:56.345Z,11.50
2018-04-23T22:48:22.357Z,11.50
2018-04-23T22:50:48.444Z,11.50
2018-04-23T22:53:14.573Z,11.50
2018-04-23T22:55:41.394Z,11.40
2018-04-23T22:58:07.506Z,11.40
2018-04-23T23:00:33.663Z,11.40
2018-04-23T23:02:59.740Z,11.50
2018-04-23T23:05:26.578Z,12.00
2018-04-23T23:07:52.695Z,12.00
2018-04-23T23:10:18.790Z,12.20
2018-04-23T23:12:44.914Z,12.20
2018-04-23T23:15:11.788Z,12.20
2018-04-23T23:17:37.922Z,12.20
2018-04-23T23:20:04.029Z,12.10
2018-04-23T23:22:30.890Z,11.70
2018-04-23T23:24:57.014Z,11.70
2018-04-23T23:27:23.177Z,11.60
2018-04-23T23:29:49.294Z,11.40
2018-04-23T23:32:15.399Z,11.60
2018-04-23T23:34:41.529Z,11.70
2018-04-23T23:37:07.647Z,11.80
2018-04-23T23:39:33.781Z,11.90
2018-04-23T23:41:59.874Z,12.00
2018-04-23T23:44:25.978Z,12.00
2018-04-23T23:46:52.109Z,11.70
2018-04-23T23:49:18.246Z,11.50
2018-04-23T23:51:44.303Z,11.40
2018-04-23T23:54:10.422Z,11.10
2018-04-23T23:56:36.514Z,10.90
2018-04-23T23:59:02.638Z,10.80
